Time;durP1;ratioP1;P1;durP2;ratioP2;P2;SDS_P1;SDS_P2;PMS_P1;PMS_P2;Temp;Humidity;BMP_temperature;BMP_pressure;BME280_temperature;BME280_humidity;BME280_pressure;Samples;Min_cycle;Max_cycle;Signal;HPM_P1;HPM_P2
2021/04/17 00:00:13;;;;;;;10.15;4.88;;;;;;;;;;9996727;29;20044;-62
2021/04/17 00:05:12;;;;;;;8.15;4.57;;;;;;;;;;9997378;29;20111;-63
2021/04/17 00:10:10;;;;;;;5.35;4.80;;;;;;;;;;9994986;29;20048;-62
2021/04/17 00:15:08;;;;;;;8.70;5.22;;;;;;;;;;9997259;29;20533;-62
2021/04/17 00:20:07;;;;;;;6.90;4.60;;;;;;;;;;9997109;29;20076;-62
2021/04/17 00:25:05;;;;;;;8.75;6.25;;;;;;;;;;9997127;29;20604;-62
2021/04/17 00:30:03;;;;;;;10.63;5.40;;;;;;;;;;9997083;29;20518;-62
2021/04/17 00:35:01;;;;;;;7.63;6.13;;;;;;;;;;9996433;29;20044;-63
2021/04/17 00:39:59;;;;;;;7.32;6.25;;;;;;;;;;9996857;29;20048;-63
2021/04/17 00:44:56;;;;;;;8.52;6.40;;;;;;;;;;9996579;29;20110;-62
2021/04/17 00:49:54;;;;;;;6.60;5.93;;;;;;;;;;9999307;29;20083;-62
2021/04/17 00:54:52;;;;;;;6.13;5.57;;;;;;;;;;10001714;29;20052;-62
2021/04/17 00:59:50;;;;;;;5.90;4.82;;;;;;;;;;10002826;29;20084;-62
2021/04/17 01:04:49;;;;;;;6.93;6.22;;;;;;;;;;10002703;29;20077;-62
2021/04/17 01:09:48;;;;;;;7.97;6.00;;;;;;;;;;10002545;29;20628;-62
2021/04/17 01:14:46;;;;;;;6.93;5.65;;;;;;;;;;10002003;29;20422;-62
2021/04/17 01:19:56;;;;;;;7.22;6.53;;;;;;;;;;10001851;29;20044;-62
2021/04/17 01:25:03;;;;;;;7.70;6.93;;;;;;;;;;10002765;29;20055;-61
2021/04/17 01:30:03;;;;;;;10.82;7.47;;;;;;;;;;10002422;29;20084;-60
2021/04/17 01:35:00;;;;;;;5.35;4.85;;;;;;;;;;10003052;29;20055;-62
2021/04/17 01:39:58;;;;;;;6.70;5.53;;;;;;;;;;10003101;29;20067;-61
2021/04/17 01:44:56;;;;;;;35.05;18.00;;;;;;;;;;10003427;29;20383;-61
2021/04/17 01:49:54;;;;;;;8.63;6.97;;;;;;;;;;10003069;29;20177;-60
2021/04/17 01:54:53;;;;;;;9.32;6.00;;;;;;;;;;10002046;29;20063;-60
2021/04/17 01:59:51;;;;;;;8.35;6.78;;;;;;;;;;10001298;29;20080;-60
2021/04/17 02:04:48;;;;;;;8.43;7.72;;;;;;;;;;10002388;29;20075;-60
2021/04/17 02:09:46;;;;;;;8.85;6.20;;;;;;;;;;10002437;29;20087;-61
2021/04/17 02:14:44;;;;;;;6.20;5.05;;;;;;;;;;10001690;29;20506;-61
2021/04/17 02:19:44;;;;;;;6.72;5.53;;;;;;;;;;10002287;29;20078;-61
2021/04/17 02:24:42;;;;;;;21.77;14.93;;;;;;;;;;10001912;29;20048;-59
2021/04/17 02:29:40;;;;;;;8.75;7.15;;;;;;;;;;10001758;29;20083;-60
2021/04/17 02:34:37;;;;;;;7.28;5.45;;;;;;;;;;10000600;29;20102;-60
2021/04/17 02:39:34;;;;;;;7.80;6.50;;;;;;;;;;10001389;29;20098;-60
2021/04/17 02:44:32;;;;;;;9.27;8.43;;;;;;;;;;10000771;29;20083;-61
2021/04/17 02:49:30;;;;;;;7.38;6.55;;;;;;;;;;9999967;29;20072;-61
2021/04/17 02:54:27;;;;;;;7.70;6.82;;;;;;;;;;9998806;29;20052;-62
2021/04/17 02:59:25;;;;;;;8.73;5.70;;;;;;;;;;10000682;29;20498;-61
2021/04/17 03:04:22;;;;;;;7.97;5.43;;;;;;;;;;10000262;29;20072;-60
2021/04/17 03:09:20;;;;;;;7.30;5.53;;;;;;;;;;10000014;29;20083;-60
2021/04/17 03:14:18;;;;;;;6.85;5.90;;;;;;;;;;9998844;29;20378;-61
2021/04/17 03:19:15;;;;;;;6.50;5.85;;;;;;;;;;10000300;29;20075;-61
2021/04/17 03:24:12;;;;;;;5.68;5.07;;;;;;;;;;9998061;29;20418;-61
2021/04/17 03:29:11;;;;;;;6.65;6.05;;;;;;;;;;9999405;29;20091;-60
2021/04/17 03:34:08;;;;;;;7.05;5.65;;;;;;;;;;9999439;29;20071;-59
2021/04/17 03:39:06;;;;;;;6.50;5.90;;;;;;;;;;9999253;29;20077;-60
2021/04/17 03:44:03;;;;;;;6.78;5.75;;;;;;;;;;9999131;29;20080;-58
2021/04/17 03:49:01;;;;;;;182.15;69.65;;;;;;;;;;9998879;29;20495;-63
2021/04/17 03:53:59;;;;;;;10.45;9.45;;;;;;;;;;9998763;29;20087;-60
2021/04/17 03:58:57;;;;;;;6.72;5.50;;;;;;;;;;9997684;29;20083;-59
2021/04/17 04:03:56;;;;;;;9.25;7.40;;;;;;;;;;9998895;29;20180;-59
2021/04/17 04:08:55;;;;;;;8.18;6.50;;;;;;;;;;9997999;29;20090;-60
2021/04/17 04:13:52;;;;;;;6.10;5.50;;;;;;;;;;9998102;29;20196;-61
2021/04/17 04:18:49;;;;;;;9.13;6.50;;;;;;;;;;9998263;29;20076;-61
2021/04/17 04:23:46;;;;;;;7.60;6.78;;;;;;;;;;9999267;29;20048;-61
2021/04/17 04:28:45;;;;;;;6.03;5.45;;;;;;;;;;10004910;29;20095;-61
2021/04/17 04:33:42;;;;;;;5.85;5.25;;;;;;;;;;10005119;29;20052;-61
2021/04/17 04:38:39;;;;;;;18.90;15.75;;;;;;;;;;10004365;29;20063;-62
2021/04/17 04:43:37;;;;;;;5.95;5.38;;;;;;;;;;10005382;29;20068;-62
2021/04/17 04:48:35;;;;;;;8.85;5.30;;;;;;;;;;10002735;29;20090;-61
2021/04/17 04:53:33;;;;;;;6.40;5.60;;;;;;;;;;10004924;29;20076;-62
2021/04/17 04:58:30;;;;;;;5.63;5.13;;;;;;;;;;10004191;29;20080;-60
2021/04/17 05:03:28;;;;;;;6.15;5.55;;;;;;;;;;10004091;29;20103;-61
2021/04/17 05:08:26;;;;;;;8.18;6.35;;;;;;;;;;10004087;29;20076;-61
2021/04/17 05:13:23;;;;;;;12.82;9.60;;;;;;;;;;10003235;29;20068;-61
2021/04/17 05:18:21;;;;;;;40.20;10.48;;;;;;;;;;10003726;29;20040;-62
2021/04/17 05:23:18;;;;;;;9.35;7.13;;;;;;;;;;10003373;29;20055;-60
2021/04/17 05:28:17;;;;;;;9.68;8.60;;;;;;;;;;10001419;29;20091;-63
2021/04/17 05:33:14;;;;;;;8.25;5.93;;;;;;;;;;10002095;29;20063;-61
2021/04/17 05:38:12;;;;;;;31.38;21.40;;;;;;;;;;10002813;29;20083;-60
2021/04/17 05:43:09;;;;;;;27.83;20.15;;;;;;;;;;10002797;29;20080;-60
2021/04/17 05:48:08;;;;;;;33.30;20.05;;;;;;;;;;10002558;29;20110;-61
2021/04/17 05:53:05;;;;;;;36.83;24.20;;;;;;;;;;10002318;29;20078;-60
2021/04/17 05:58:03;;;;;;;20.98;13.45;;;;;;;;;;10001689;29;20528;-59
2021/04/17 06:03:03;;;;;;;19.77;13.63;;;;;;;;;;10001207;29;20079;-62
2021/04/17 06:08:02;;;;;;;21.75;13.85;;;;;;;;;;10002085;29;20067;-59
2021/04/17 06:12:59;;;;;;;28.65;18.35;;;;;;;;;;10001893;29;20103;-61
2021/04/17 06:17:56;;;;;;;23.77;13.70;;;;;;;;;;10001422;29;20090;-62
2021/04/17 06:22:54;;;;;;;31.85;18.40;;;;;;;;;;10001310;29;20078;-62
2021/04/17 06:27:53;;;;;;;31.50;16.92;;;;;;;;;;10000394;29;20084;-61
2021/04/17 06:32:50;;;;;;;23.55;16.20;;;;;;;;;;10000095;29;20517;-61
2021/04/17 06:37:47;;;;;;;24.05;14.95;;;;;;;;;;10024181;29;20079;-61
2021/04/17 06:42:46;;;;;;;26.08;16.35;;;;;;;;;;10033718;29;20532;-61
2021/04/17 06:47:44;;;;;;;22.58;16.92;;;;;;;;;;10000952;29;20076;-60
2021/04/17 06:52:42;;;;;;;19.40;13.90;;;;;;;;;;10000217;29;20052;-61
2021/04/17 06:57:39;;;;;;;24.75;17.90;;;;;;;;;;9999070;29;20082;-60
2021/04/17 07:02:37;;;;;;;21.55;17.35;;;;;;;;;;10024423;29;20059;-60
2021/04/17 07:07:35;;;;;;;18.23;14.70;;;;;;;;;;10034088;29;20082;-61
2021/04/17 07:12:33;;;;;;;23.50;16.13;;;;;;;;;;10001522;29;20088;-60
2021/04/17 07:17:32;;;;;;;21.60;16.00;;;;;;;;;;9999666;29;20048;-60
2021/04/17 07:22:31;;;;;;;18.35;14.85;;;;;;;;;;9999767;29;20080;-60
2021/04/17 07:27:36;;;;;;;20.65;15.57;;;;;;;;;;9999178;29;20499;-60
2021/04/17 07:32:34;;;;;;;18.10;13.55;;;;;;;;;;9998949;29;20087;-60
2021/04/17 07:37:32;;;;;;;23.42;16.27;;;;;;;;;;10031323;29;20098;-60
2021/04/17 07:42:36;;;;;;;22.45;16.65;;;;;;;;;;10001466;29;20079;-61
2021/04/17 07:47:34;;;;;;;51.47;34.70;;;;;;;;;;10004107;29;20071;-59
2021/04/17 07:52:32;;;;;;;57.92;38.75;;;;;;;;;;10014912;29;20488;-60
2021/04/17 07:57:31;;;;;;;19.90;15.02;;;;;;;;;;10026207;29;20483;-61
2021/04/17 08:02:29;;;;;;;18.17;13.20;;;;;;;;;;10027672;29;20083;-62
2021/04/17 08:07:28;;;;;;;23.95;18.02;;;;;;;;;;10006299;29;20095;-62
2021/04/17 08:12:25;;;;;;;17.02;12.23;;;;;;;;;;10005957;29;20076;-61
2021/04/17 08:17:22;;;;;;;22.70;16.02;;;;;;;;;;10019431;29;20080;-61
2021/04/17 08:22:22;;;;;;;25.55;18.38;;;;;;;;;;10008717;29;20055;-61
2021/04/17 08:27:19;;;;;;;16.25;10.13;;;;;;;;;;10008708;29;20088;-61
2021/04/17 08:32:23;;;;;;;15.15;12.57;;;;;;;;;;10006243;29;20056;-61
2021/04/17 08:37:22;;;;;;;18.47;11.50;;;;;;;;;;10005442;29;20146;-61
2021/04/17 08:42:37;;;;;;;15.27;9.85;;;;;;;;;;10004497;29;20482;-61
2021/04/17 08:47:45;;;;;;;20.83;12.65;;;;;;;;;;10005182;29;20383;-60
2021/04/17 08:52:43;;;;;;;15.32;10.73;;;;;;;;;;10015474;29;20052;-61
2021/04/17 08:58:10;;;;;;;13.75;10.90;;;;;;;;;;10003986;29;20080;-61
2021/04/17 09:03:07;;;;;;;20.10;8.77;;;;;;;;;;10003892;29;20099;-60
2021/04/17 09:08:11;;;;;;;16.83;9.93;;;;;;;;;;10004563;29;20091;-61
2021/04/17 09:13:27;;;;;;;6.88;5.93;;;;;;;;;;10019774;29;20066;-59
2021/04/17 09:18:40;;;;;;;12.80;9.60;;;;;;;;;;10030948;29;20075;-61
2021/04/17 09:23:42;;;;;;;11.85;8.65;;;;;;;;;;10038326;29;20106;-60
2021/04/17 09:28:39;;;;;;;22.38;15.63;;;;;;;;;;10039463;29;20098;-62
2021/04/17 09:33:37;;;;;;;20.60;10.48;;;;;;;;;;10038409;29;20071;-60
2021/04/17 09:38:34;;;;;;;22.20;14.88;;;;;;;;;;10034579;29;20513;-60
2021/04/17 09:43:35;;;;;;;25.00;11.70;;;;;;;;;;10035094;29;20498;-61
2021/04/17 09:48:38;;;;;;;14.77;9.80;;;;;;;;;;10037235;29;20082;-61
2021/04/17 09:53:37;;;;;;;12.85;8.23;;;;;;;;;;10040106;29;20235;-61
2021/04/17 09:58:36;;;;;;;11.77;8.65;;;;;;;;;;10039396;29;20082;-60
2021/04/17 10:03:35;;;;;;;7.13;4.55;;;;;;;;;;10038970;29;20083;-61
2021/04/17 10:08:34;;;;;;;10.80;4.75;;;;;;;;;;10038942;29;20075;-61
2021/04/17 10:13:46;;;;;;;14.77;10.68;;;;;;;;;;10039107;29;20082;-60
2021/04/17 10:18:44;;;;;;;20.73;11.35;;;;;;;;;;10039016;29;20082;-62
2021/04/17 10:23:43;;;;;;;10.82;9.00;;;;;;;;;;10037611;29;20083;-61
2021/04/17 10:28:40;;;;;;;14.77;9.75;;;;;;;;;;10038217;29;20086;-61
2021/04/17 10:33:42;;;;;;;15.07;11.10;;;;;;;;;;10037906;29;20079;-60
2021/04/17 10:38:41;;;;;;;9.38;7.20;;;;;;;;;;10038010;29;20106;-60
2021/04/17 10:43:38;;;;;;;21.23;13.98;;;;;;;;;;10037750;29;20063;-61
2021/04/17 10:48:43;;;;;;;44.60;25.05;;;;;;;;;;10037374;29;20078;-62
2021/04/17 10:53:42;;;;;;;11.88;8.75;;;;;;;;;;10037230;29;20258;-62
2021/04/17 10:58:40;;;;;;;28.55;14.15;;;;;;;;;;10037321;29;20079;-62
2021/04/17 11:03:41;;;;;;;7.60;5.38;;;;;;;;;;10036758;29;20086;-61
2021/04/17 11:08:40;;;;;;;10.32;5.47;;;;;;;;;;10036453;29;20090;-61
2021/04/17 11:13:37;;;;;;;8.23;7.07;;;;;;;;;;10036435;29;20079;-60
2021/04/17 11:18:36;;;;;;;7.25;4.72;;;;;;;;;;10037106;29;20732;-61
2021/04/17 11:23:36;;;;;;;10.32;5.75;;;;;;;;;;10036236;29;20044;-61
2021/04/17 11:28:35;;;;;;;7.53;3.47;;;;;;;;;;10035559;29;20094;-62
2021/04/17 11:33:33;;;;;;;9.38;3.88;;;;;;;;;;10036237;29;20087;-63
2021/04/17 11:38:32;;;;;;;5.00;3.92;;;;;;;;;;10036004;29;20082;-62
2021/04/17 11:43:29;;;;;;;3.60;3.05;;;;;;;;;;10035456;29;20090;-62
2021/04/17 11:48:28;;;;;;;8.63;3.33;;;;;;;;;;10035862;29;20079;-60
2021/04/17 11:53:25;;;;;;;5.82;3.38;;;;;;;;;;10035482;29;20075;-62
2021/04/17 11:58:22;;;;;;;9.57;4.38;;;;;;;;;;10035928;29;20079;-62
2021/04/17 12:03:22;;;;;;;4.82;3.75;;;;;;;;;;10035386;29;20048;-63
2021/04/17 12:08:21;;;;;;;10.65;4.68;;;;;;;;;;10035531;29;20087;-62
2021/04/17 12:13:18;;;;;;;8.50;5.28;;;;;;;;;;10035340;29;20080;-61
2021/04/17 12:18:16;;;;;;;5.57;3.78;;;;;;;;;;10034769;29;20075;-61
2021/04/17 12:23:14;;;;;;;5.10;4.15;;;;;;;;;;10035068;29;20075;-61
2021/04/17 12:28:12;;;;;;;4.80;3.25;;;;;;;;;;10034755;29;20087;-62
2021/04/17 12:33:10;;;;;;;5.43;4.30;;;;;;;;;;10034568;29;20048;-62
2021/04/17 12:38:08;;;;;;;5.75;3.28;;;;;;;;;;10035135;29;20079;-62
2021/04/17 12:43:06;;;;;;;7.60;4.95;;;;;;;;;;10034993;29;20080;-61
2021/04/17 12:48:06;;;;;;;12.32;10.45;;;;;;;;;;10041045;29;20076;-63
2021/04/17 12:53:03;;;;;;;13.98;7.53;;;;;;;;;;10041744;29;20156;-62
2021/04/17 12:58:01;;;;;;;9.80;6.10;;;;;;;;;;10041511;29;20067;-62
2021/04/17 13:02:58;;;;;;;10.30;6.90;;;;;;;;;;10041534;29;20080;-62
2021/04/17 13:07:57;;;;;;;14.10;8.95;;;;;;;;;;10041158;29;20477;-61
2021/04/17 13:12:54;;;;;;;10.45;6.13;;;;;;;;;;10041063;29;20228;-61
2021/04/17 13:17:52;;;;;;;15.38;9.38;;;;;;;;;;10040933;29;20083;-61
2021/04/17 13:22:54;;;;;;;49.30;28.33;;;;;;;;;;10040714;29;20048;-61
2021/04/17 13:27:52;;;;;;;11.25;8.32;;;;;;;;;;10040522;29;20079;-61
2021/04/17 13:32:51;;;;;;;10.98;8.95;;;;;;;;;;10040504;29;20082;-61
2021/04/17 13:37:49;;;;;;;6.22;4.75;;;;;;;;;;10039716;29;20066;-61
2021/04/17 13:42:46;;;;;;;15.48;8.43;;;;;;;;;;10040193;29;20071;-60
2021/04/17 13:47:45;;;;;;;13.60;8.23;;;;;;;;;;10020572;29;20479;-60
2021/04/17 13:52:42;;;;;;;7.35;4.03;;;;;;;;;;10018246;29;20082;-61
2021/04/17 13:57:39;;;;;;;6.35;3.75;;;;;;;;;;10025431;29;20519;-60
2021/04/17 14:02:37;;;;;;;4.03;3.10;;;;;;;;;;10029175;29;20094;-61
2021/04/17 14:07:36;;;;;;;7.95;3.95;;;;;;;;;;10020449;29;20071;-61
2021/04/17 14:12:33;;;;;;;6.53;2.95;;;;;;;;;;10022822;29;20067;-61
2021/04/17 14:17:30;;;;;;;8.13;5.57;;;;;;;;;;10018033;29;20070;-62
2021/04/17 14:22:28;;;;;;;7.13;4.43;;;;;;;;;;10022348;29;20067;-61
2021/04/17 14:27:26;;;;;;;5.57;3.35;;;;;;;;;;10021342;29;20063;-61
2021/04/17 14:32:24;;;;;;;4.32;3.88;;;;;;;;;;10017190;29;20080;-62
2021/04/17 14:37:21;;;;;;;14.68;6.75;;;;;;;;;;10006612;29;20520;-61
2021/04/17 14:42:18;;;;;;;7.75;6.30;;;;;;;;;;10018663;29;20473;-61
2021/04/17 14:47:17;;;;;;;20.35;14.10;;;;;;;;;;10005776;29;20321;-60
2021/04/17 14:52:14;;;;;;;7.65;4.60;;;;;;;;;;10023502;29;20082;-61
2021/04/17 14:57:11;;;;;;;6.75;4.43;;;;;;;;;;10015161;29;20497;-61
2021/04/17 15:02:10;;;;;;;5.15;3.97;;;;;;;;;;10013798;29;20083;-62
2021/04/17 15:07:08;;;;;;;7.22;5.50;;;;;;;;;;10021834;29;20550;-60
2021/04/17 15:12:06;;;;;;;10.50;6.60;;;;;;;;;;10022943;29;20105;-60
2021/04/17 15:17:03;;;;;;;16.55;10.45;;;;;;;;;;10021545;29;20067;-61
2021/04/17 15:22:01;;;;;;;14.55;7.85;;;;;;;;;;10033725;28;20091;-63
2021/04/17 15:26:59;;;;;;;17.08;9.95;;;;;;;;;;10016436;29;20071;-62
2021/04/17 15:31:56;;;;;;;43.10;27.05;;;;;;;;;;10033725;29;20087;-62
2021/04/17 15:36:55;;;;;;;15.35;8.25;;;;;;;;;;10019435;29;20083;-60
2021/04/17 15:41:54;;;;;;;12.15;6.00;;;;;;;;;;10030144;29;20138;-61
2021/04/17 15:46:52;;;;;;;7.35;6.53;;;;;;;;;;10015744;29;20103;-61
2021/04/17 15:51:50;;;;;;;6.75;4.22;;;;;;;;;;10014427;29;20076;-60
2021/04/17 15:56:53;;;;;;;11.82;4.82;;;;;;;;;;10012617;29;20099;-61
2021/04/17 16:17:38;;;;;;;10.85;8.38;;;;;;;;;;10010614;29;20489;-62
2021/04/17 16:22:36;;;;;;;8.90;7.30;;;;;;;;;;10016454;29;20083;-63
2021/04/17 16:27:34;;;;;;;8.20;7.15;;;;;;;;;;10018025;29;20080;-61
2021/04/17 16:32:31;;;;;;;12.20;8.95;;;;;;;;;;10035660;29;20087;-63
2021/04/17 16:37:29;;;;;;;18.30;12.35;;;;;;;;;;10029452;29;20074;-64
2021/04/17 16:42:27;;;;;;;15.43;11.15;;;;;;;;;;10046952;29;20090;-62
2021/04/17 16:47:24;;;;;;;9.85;6.38;;;;;;;;;;10027046;29;20095;-63
2021/04/17 16:52:22;;;;;;;10.32;7.80;;;;;;;;;;10015693;29;20086;-63
2021/04/17 16:57:20;;;;;;;11.35;9.00;;;;;;;;;;10007609;29;20075;-63
2021/04/17 17:02:18;;;;;;;15.68;12.00;;;;;;;;;;10042769;29;20050;-64
2021/04/17 17:07:16;;;;;;;14.50;10.70;;;;;;;;;;10030770;29;20691;-63
2021/04/17 17:12:14;;;;;;;20.20;15.15;;;;;;;;;;10039334;29;20106;-64
2021/04/17 17:17:11;;;;;;;15.25;12.52;;;;;;;;;;10026720;29;20078;-63
2021/04/17 17:22:09;;;;;;;19.77;14.30;;;;;;;;;;10023130;29;20544;-63
2021/04/17 17:27:07;;;;;;;14.85;11.05;;;;;;;;;;10028206;29;20058;-63
2021/04/17 17:32:04;;;;;;;12.75;9.80;;;;;;;;;;10023536;29;20099;-63
2021/04/17 17:37:02;;;;;;;12.60;10.45;;;;;;;;;;10009773;29;20098;-63
2021/04/17 17:42:00;;;;;;;11.80;9.95;;;;;;;;;;10024906;28;20084;-63
2021/04/17 17:46:58;;;;;;;12.80;10.32;;;;;;;;;;10026956;29;20075;-63
2021/04/17 17:51:55;;;;;;;20.23;13.88;;;;;;;;;;10024436;29;20083;-63
2021/04/17 17:56:52;;;;;;;18.33;13.30;;;;;;;;;;10015854;29;20063;-63
2021/04/17 18:01:51;;;;;;;19.77;12.70;;;;;;;;;;10020648;29;20071;-63
2021/04/17 18:06:48;;;;;;;17.20;12.70;;;;;;;;;;10017539;29;20106;-62
2021/04/17 18:11:47;;;;;;;19.20;13.00;;;;;;;;;;10022623;29;20083;-64
2021/04/17 18:16:44;;;;;;;16.90;10.63;;;;;;;;;;10017152;29;20067;-63
2021/04/17 18:21:46;;;;;;;15.90;11.45;;;;;;;;;;10019069;29;20504;-64
2021/04/17 18:26:43;;;;;;;15.57;10.48;;;;;;;;;;10019051;29;20067;-62
2021/04/17 18:31:41;;;;;;;13.50;9.93;;;;;;;;;;10013726;29;20090;-63
2021/04/17 18:36:38;;;;;;;11.77;8.30;;;;;;;;;;10026884;29;20549;-62
2021/04/17 18:41:37;;;;;;;11.93;9.40;;;;;;;;;;10021602;29;20071;-62
2021/04/17 18:46:34;;;;;;;15.30;10.52;;;;;;;;;;10018064;29;20141;-62
2021/04/17 18:51:32;;;;;;;12.25;9.73;;;;;;;;;;10024657;29;20072;-62
2021/04/17 18:56:29;;;;;;;10.20;9.07;;;;;;;;;;10010429;29;20478;-63
2021/04/17 19:01:27;;;;;;;13.35;8.98;;;;;;;;;;10022276;29;20079;-63
2021/04/17 19:06:25;;;;;;;10.00;8.32;;;;;;;;;;10021401;29;20075;-63
2021/04/17 19:11:22;;;;;;;8.45;7.35;;;;;;;;;;10020246;29;20078;-62
2021/04/17 19:16:21;;;;;;;8.73;7.50;;;;;;;;;;10019019;29;20109;-64
2021/04/17 19:21:19;;;;;;;8.48;7.68;;;;;;;;;;10023081;29;20547;-63
2021/04/17 19:26:17;;;;;;;12.35;8.85;;;;;;;;;;10022606;29;20079;-64
2021/04/17 19:31:15;;;;;;;13.20;9.30;;;;;;;;;;10018188;29;20094;-64
2021/04/17 19:36:13;;;;;;;15.63;10.25;;;;;;;;;;10014828;29;20357;-62
2021/04/17 19:41:13;;;;;;;23.00;15.10;;;;;;;;;;10014117;29;20481;-63
2021/04/17 19:46:10;;;;;;;16.90;11.27;;;;;;;;;;10028359;29;20074;-62
2021/04/17 19:51:08;;;;;;;13.93;10.23;;;;;;;;;;10021136;29;20079;-62
2021/04/17 19:56:05;;;;;;;13.30;9.55;;;;;;;;;;10023922;29;20079;-61
2021/04/17 20:01:04;;;;;;;23.67;17.63;;;;;;;;;;10004440;29;20084;-64
2021/04/17 20:06:01;;;;;;;43.95;29.27;;;;;;;;;;10001860;29;20075;-62
2021/04/17 20:10:58;;;;;;;19.48;13.43;;;;;;;;;;10016449;29;20195;-62
2021/04/17 20:15:56;;;;;;;14.18;10.05;;;;;;;;;;10022912;29;20457;-62
2021/04/17 20:20:54;;;;;;;13.52;9.48;;;;;;;;;;10025358;29;20068;-63
2021/04/17 20:25:52;;;;;;;10.85;6.60;;;;;;;;;;10022683;29;20086;-64
2021/04/17 20:30:49;;;;;;;8.35;7.10;;;;;;;;;;10023247;29;20095;-63
2021/04/17 20:35:46;;;;;;;7.68;6.85;;;;;;;;;;10028679;29;20082;-61
2021/04/17 20:40:45;;;;;;;12.25;7.13;;;;;;;;;;10022747;29;20083;-61
2021/04/17 20:45:42;;;;;;;13.13;7.18;;;;;;;;;;10021725;29;20079;-60
2021/04/17 20:50:40;;;;;;;8.60;5.00;;;;;;;;;;10014328;29;20109;-62
2021/04/17 20:55:37;;;;;;;6.80;5.05;;;;;;;;;;10019847;29;20079;-62
2021/04/17 21:00:35;;;;;;;10.93;7.65;;;;;;;;;;10001906;29;20087;-61
2021/04/17 21:05:33;;;;;;;10.05;8.00;;;;;;;;;;10022267;29;20086;-61
2021/04/17 21:10:30;;;;;;;8.52;6.50;;;;;;;;;;10019898;29;20079;-62
2021/04/17 21:15:27;;;;;;;9.00;6.85;;;;;;;;;;10017279;29;20083;-62
2021/04/17 21:20:26;;;;;;;11.23;7.20;;;;;;;;;;10016535;29;20093;-64
2021/04/17 21:25:23;;;;;;;12.75;8.27;;;;;;;;;;10020404;29;20075;-62
2021/04/17 21:30:20;;;;;;;24.90;9.48;;;;;;;;;;10019447;29;20127;-62
2021/04/17 21:35:18;;;;;;;20.85;9.70;;;;;;;;;;10020691;29;20044;-62
2021/04/17 21:40:17;;;;;;;13.90;11.82;;;;;;;;;;10018928;29;20074;-63
2021/04/17 21:45:15;;;;;;;20.25;12.23;;;;;;;;;;10019895;29;20490;-63
2021/04/17 21:50:16;;;;;;;15.52;11.07;;;;;;;;;;10018971;29;20573;-61
2021/04/17 21:55:15;;;;;;;12.60;10.20;;;;;;;;;;10019574;29;20075;-62
2021/04/17 22:00:20;;;;;;;12.32;9.63;;;;;;;;;;10017309;29;20078;-62
2021/04/17 22:05:18;;;;;;;13.73;8.82;;;;;;;;;;10019484;29;20098;-62
2021/04/17 22:10:15;;;;;;;10.93;9.75;;;;;;;;;;10016412;29;20067;-62
2021/04/17 22:15:14;;;;;;;10.80;7.82;;;;;;;;;;10019034;29;20098;-62
2021/04/17 22:20:12;;;;;;;10.57;7.45;;;;;;;;;;10018031;29;20090;-62
2021/04/17 22:25:10;;;;;;;8.82;6.70;;;;;;;;;;10016437;29;20589;-63
2021/04/17 22:30:09;;;;;;;8.02;5.97;;;;;;;;;;10016396;29;20139;-63
2021/04/17 22:35:08;;;;;;;8.63;6.38;;;;;;;;;;10018218;29;20052;-63
2021/04/17 22:40:07;;;;;;;7.72;5.80;;;;;;;;;;10015338;29;20076;-63
2021/04/17 22:45:05;;;;;;;7.15;6.38;;;;;;;;;;10017637;29;20075;-63
2021/04/17 22:50:03;;;;;;;7.93;5.97;;;;;;;;;;10015578;29;20530;-63
2021/04/17 22:55:04;;;;;;;5.60;5.10;;;;;;;;;;10017290;29;20509;-63
2021/04/17 23:00:01;;;;;;;10.13;7.30;;;;;;;;;;10015475;29;20083;-63
2021/04/17 23:04:58;;;;;;;7.85;5.53;;;;;;;;;;10017028;29;20070;-63
2021/04/17 23:09:55;;;;;;;10.55;5.05;;;;;;;;;;10014542;29;20463;-61
2021/04/17 23:14:54;;;;;;;7.88;5.78;;;;;;;;;;10015976;29;20079;-62
2021/04/17 23:19:51;;;;;;;5.20;4.70;;;;;;;;;;10014081;29;20075;-61
2021/04/17 23:24:48;;;;;;;6.78;5.88;;;;;;;;;;10015874;29;20076;-62
2021/04/17 23:29:46;;;;;;;8.48;5.13;;;;;;;;;;10020590;29;20098;-62
2021/04/17 23:34:44;;;;;;;7.10;5.82;;;;;;;;;;10015181;29;20544;-61
2021/04/17 23:39:42;;;;;;;6.25;5.45;;;;;;;;;;10014161;29;20083;-62
2021/04/17 23:44:39;;;;;;;6.97;5.38;;;;;;;;;;10013924;29;20098;-61
2021/04/17 23:49:36;;;;;;;12.05;6.70;;;;;;;;;;10014664;29;20071;-62
2021/04/17 23:54:35;;;;;;;6.95;5.50;;;;;;;;;;10013227;29;20080;-63
2021/04/17 23:59:32;;;;;;;8.00;5.78;;;;;;;;;;10013590;29;20525;-62
